Time;durP1;ratioP1;P1;durP2;ratioP2;P2;SDS_P1;SDS_P2;PMS_P1;PMS_P2;Temp;Humidity;BMP_temperature;BMP_pressure;BME280_temperature;BME280_humidity;BME280_pressure;Samples;Min_cycle;Max_cycle;Signal;HPM_P1;HPM_P2
2023/10/03 00:01:35;439027.00;1.46;756.91;18972.00;0.06;33.49;;;;;18.70;1.00;;;;;;2284359;60;2006;-86
2023/10/03 00:04:03;386125.00;1.29;665.95;0.00;0.00;0.62;;;;;18.70;1.00;;;;;;2284483;60;1100;-86
2023/10/03 00:06:30;238804.00;0.80;412.69;0.00;0.00;0.62;;;;;18.80;1.00;;;;;;2284404;60;2404;-87
2023/10/03 00:08:57;183133.00;0.61;316.88;0.00;0.00;0.62;;;;;18.60;1.00;;;;;;2284538;60;1034;-87
2023/10/03 00:11:24;247795.00;0.83;428.16;0.00;0.00;0.62;;;;;18.50;1.00;;;;;;2284458;60;1433;-86
2023/10/03 00:13:50;434778.00;1.45;749.60;53479.00;0.18;93.20;;;;;18.60;1.00;;;;;;2284495;60;1046;-87
2023/10/03 00:16:18;780848.00;2.60;1347.74;48562.00;0.16;84.70;;;;;18.40;1.00;;;;;;2284444;60;1014;-87
2023/10/03 00:18:45;213452.00;0.71;369.08;0.00;0.00;0.62;;;;;18.40;1.00;;;;;;2284436;60;1125;-86
2023/10/03 00:21:13;425803.00;1.42;734.17;0.00;0.00;0.62;;;;;18.30;1.00;;;;;;2284464;60;1280;-86
2023/10/03 00:23:40;423215.00;1.41;729.72;0.00;0.00;0.62;;;;;18.30;1.00;;;;;;2284439;60;1993;-86
2023/10/03 00:26:15;761068.00;2.54;1313.31;16779.00;0.06;29.69;;;;;18.50;1.00;;;;;;2284245;60;1093;-87
2023/10/03 00:28:42;580354.00;1.93;1000.31;0.00;0.00;0.62;;;;;18.40;1.00;;;;;;2284452;60;1136;-84
2023/10/03 00:31:10;359016.00;1.20;619.36;0.00;0.00;0.62;;;;;18.30;1.00;;;;;;2284418;60;1308;-88
2023/10/03 00:33:37;645479.00;2.15;1112.82;31306.00;0.10;54.84;;;;;18.00;1.30;;;;;;2284399;60;1606;-86
2023/10/03 00:36:05;333796.00;1.11;576.01;0.00;0.00;0.62;;;;;17.90;1.70;;;;;;2284388;60;1169;-87
2023/10/03 00:38:34;511274.00;1.70;881.24;50623.00;0.17;88.26;;;;;17.90;2.80;;;;;;2284417;60;1740;-87
2023/10/03 00:41:01;587680.00;1.96;1012.95;0.00;0.00;0.62;;;;;17.90;1.50;;;;;;2284324;60;1654;-88
2023/10/03 00:43:27;610760.00;2.04;1052.80;0.00;0.00;0.62;;;;;18.00;1.40;;;;;;2284340;60;1923;-89
2023/10/03 00:45:54;606995.00;2.02;1046.30;0.00;0.00;0.62;;;;;18.30;1.20;;;;;;2284344;60;1036;-87
2023/10/03 00:48:21;251098.00;0.84;433.84;0.00;0.00;0.62;;;;;18.20;1.00;;;;;;2284376;60;1676;-87
2023/10/03 00:50:49;329365.00;1.10;568.39;0.00;0.00;0.62;;;;;17.70;1.60;;;;;;2284260;60;2116;-87
2023/10/03 00:53:16;317967.00;1.06;548.80;0.00;0.00;0.62;;;;;17.60;1.80;;;;;;2284352;60;1121;-87
2023/10/03 00:55:44;567027.00;1.89;977.32;21557.00;0.07;37.97;;;;;17.70;1.70;;;;;;2284379;60;1258;-88
2023/10/03 00:58:24;461723.00;1.54;795.95;0.00;0.00;0.62;;;;;17.50;2.80;;;;;;2284400;60;1011;-85
2023/10/03 01:00:50;402813.00;1.34;694.64;0.00;0.00;0.62;;;;;17.50;3.50;;;;;;2284228;60;1410;-87
2023/10/03 01:03:28;820210.00;2.73;1416.39;182624.00;0.61;316.01;;;;;17.30;3.90;;;;;;2284317;60;1922;-87
2023/10/03 01:05:57;484433.00;1.61;835.03;0.00;0.00;0.62;;;;;17.00;5.50;;;;;;2284348;60;1116;-87
2023/10/03 01:08:24;719708.00;2.40;1241.43;0.00;0.00;0.62;;;;;16.80;6.90;;;;;;2284331;60;2211;-86
2023/10/03 01:10:54;585165.00;1.95;1008.61;0.00;0.00;0.62;;;;;16.70;8.20;;;;;;2284289;60;1455;-87
2023/10/03 01:13:24;351454.00;1.17;606.36;0.00;0.00;0.62;;;;;16.40;9.00;;;;;;2284216;60;1529;-86
2023/10/03 01:15:52;535304.00;1.78;922.63;0.00;0.00;0.62;;;;;16.30;10.00;;;;;;2284289;60;1239;-88
2023/10/03 01:18:20;991506.00;3.31;1717.43;23250.00;0.08;40.90;;;;;16.30;9.90;;;;;;2284251;60;948;-86
2023/10/03 01:20:48;756430.00;2.52;1305.24;0.00;0.00;0.62;;;;;16.90;7.40;;;;;;2284207;60;1308;-87
2023/10/03 01:23:17;542211.00;1.81;934.53;0.00;0.00;0.62;;;;;17.30;5.50;;;;;;2284216;60;1913;-88
2023/10/03 01:25:44;461116.00;1.54;794.90;0.00;0.00;0.62;;;;;17.50;4.30;;;;;;2284229;60;1468;-86
2023/10/03 01:28:12;566008.00;1.89;975.56;0.00;0.00;0.62;;;;;17.70;3.00;;;;;;2284199;60;1093;-87
2023/10/03 01:30:41;370868.00;1.24;639.73;0.00;0.00;0.62;;;;;17.90;2.40;;;;;;2284257;60;1405;-87
2023/10/03 01:33:09;489705.00;1.63;844.10;38026.00;0.13;66.47;;;;;17.80;2.60;;;;;;2284330;60;1092;-87
2023/10/03 01:35:36;576156.00;1.92;993.07;0.00;0.00;0.62;;;;;17.70;2.70;;;;;;2284152;60;1027;-88
2023/10/03 01:38:05;289063.00;0.96;499.12;0.00;0.00;0.62;;;;;17.80;2.30;;;;;;2284231;60;2377;-85
2023/10/03 01:40:33;415034.00;1.38;715.65;19056.00;0.06;33.64;;;;;17.80;1.80;;;;;;2284167;60;1743;-86
2023/10/03 01:43:00;285298.00;0.95;492.65;0.00;0.00;0.62;;;;;17.80;2.20;;;;;;2284196;60;2002;-88
2023/10/03 01:45:32;407640.00;1.36;702.94;0.00;0.00;0.62;;;;;17.70;2.30;;;;;;2284222;60;1048;-87
2023/10/03 01:47:59;621164.00;2.07;1070.78;71405.00;0.24;124.19;;;;;17.40;3.10;;;;;;2284246;60;1242;-88
2023/10/03 01:50:28;264617.00;0.88;457.09;0.00;0.00;0.62;;;;;17.20;4.60;;;;;;2284103;60;1356;-86
2023/10/03 01:52:55;1169523.00;3.90;2035.21;219710.00;0.73;379.84;;;;;17.30;3.40;;;;;;2284197;60;1607;-87
2023/10/03 01:55:23;868978.00;2.90;1501.70;0.00;0.00;0.62;;;;;17.40;2.60;;;;;;2284178;60;1124;-87
2023/10/03 01:57:51;232055.00;0.77;401.08;0.00;0.00;0.62;;;;;17.30;2.90;;;;;;2284077;60;1615;-88
2023/10/03 02:00:24;422163.00;1.41;727.91;0.00;0.00;0.62;;;;;17.10;4.00;;;;;;2284122;60;1390;-88
2023/10/03 02:02:53;167552.00;0.56;290.05;0.00;0.00;0.62;;;;;17.10;4.00;;;;;;2284149;60;1988;-86
2023/10/03 02:05:21;175450.00;0.58;303.65;0.00;0.00;0.62;;;;;17.30;4.10;;;;;;2284177;60;1125;-89
2023/10/03 02:07:48;722910.00;2.41;1246.99;0.00;0.00;0.62;;;;;17.40;2.50;;;;;;2284167;60;1028;-89
2023/10/03 02:10:15;550692.00;1.84;949.15;0.00;0.00;0.62;;;;;17.60;2.10;;;;;;2284051;60;1603;-86
2023/10/03 02:12:48;375346.00;1.25;647.43;22588.00;0.08;39.75;;;;;17.60;1.80;;;;;;2284087;60;996;-86
2023/10/03 02:15:22;292528.00;0.98;505.08;0.00;0.00;0.62;;;;;17.40;1.90;;;;;;2284151;60;1009;-86
2023/10/03 02:17:51;411278.00;1.37;709.19;0.00;0.00;0.62;;;;;17.40;1.70;;;;;;2284180;60;1047;-88
2023/10/03 02:20:21;192215.00;0.64;332.52;0.00;0.00;0.62;;;;;17.40;2.50;;;;;;2284107;60;1363;-87
2023/10/03 02:22:53;196456.00;0.65;339.82;0.00;0.00;0.62;;;;;17.60;1.70;;;;;;2284091;60;1996;-89
2023/10/03 02:25:22;523720.00;1.75;902.67;41638.00;0.14;72.72;;;;;17.40;1.80;;;;;;2284197;60;1005;-89
2023/10/03 02:27:49;693571.00;2.31;1196.09;0.00;0.00;0.62;;;;;17.40;2.20;;;;;;2284057;60;2245;-87
2023/10/03 02:30:23;370343.00;1.23;638.83;0.00;0.00;0.62;;;;;17.10;3.10;;;;;;2284045;60;1596;-88
2023/10/03 02:32:52;621463.00;2.07;1071.29;83271.00;0.28;144.69;;;;;17.00;4.00;;;;;;2284127;60;1136;-88
2023/10/03 02:35:19;695732.00;2.32;1199.84;129479.00;0.43;224.43;;;;;17.10;3.90;;;;;;2284129;60;1127;-88
2023/10/03 02:37:47;364177.00;1.21;628.23;0.00;0.00;0.62;;;;;17.10;3.40;;;;;;2284091;60;998;-87
2023/10/03 02:40:21;791839.00;2.64;1366.89;61250.00;0.20;106.64;;;;;17.10;3.10;;;;;;2283997;60;1355;-88
2023/10/03 02:42:48;784165.00;2.61;1353.52;82686.00;0.28;143.68;;;;;17.10;3.90;;;;;;2283940;60;2012;-87
2023/10/03 02:45:17;515624.00;1.72;888.73;80545.00;0.27;139.98;;;;;17.10;3.90;;;;;;2284042;60;1043;-88
2023/10/03 02:47:45;831671.00;2.77;1436.41;86658.00;0.29;150.54;;;;;16.90;3.90;;;;;;2284080;60;1211;-86
2023/10/03 02:50:13;451957.00;1.51;779.15;66143.00;0.22;115.09;;;;;16.60;5.00;;;;;;2284771;60;1272;-87
2023/10/03 02:52:40;893828.00;2.98;1545.28;94286.00;0.31;163.71;;;;;16.30;6.70;;;;;;2284737;60;1164;-90
2023/10/03 02:55:09;1416131.00;4.72;2486.28;269738.00;0.90;465.89;;;;;16.00;7.70;;;;;;2284644;60;999;-86
2023/10/03 02:57:38;511992.00;1.71;882.47;70176.00;0.23;122.06;;;;;15.70;8.70;;;;;;2284783;60;1065;-88
2023/10/03 03:00:12;719118.00;2.40;1240.41;82076.00;0.27;142.62;;;;;15.60;9.90;;;;;;2284597;60;1622;-87
2023/10/03 03:02:41;669355.00;2.23;1154.14;81930.00;0.27;142.37;;;;;15.60;9.40;;;;;;2284932;60;1927;-88
2023/10/03 03:05:11;609020.00;2.03;1049.80;69751.00;0.23;121.33;;;;;15.90;8.60;;;;;;2284914;60;1493;-88
2023/10/03 03:07:37;648306.00;2.16;1117.71;72000.00;0.24;125.22;;;;;16.20;6.90;;;;;;2284960;60;1095;-88
2023/10/03 03:10:06;765149.00;2.55;1320.41;75154.00;0.25;130.67;;;;;16.60;4.60;;;;;;2285017;60;1410;-88
2023/10/03 03:12:35;592383.00;1.97;1021.07;126650.00;0.42;219.55;;;;;16.70;3.70;;;;;;2284932;60;1015;-88
2023/10/03 03:15:04;574865.00;1.92;990.84;84132.00;0.28;146.17;;;;;16.70;3.70;;;;;;2284815;60;976;-87
2023/10/03 03:17:31;361711.00;1.21;623.99;80249.00;0.27;139.47;;;;;16.40;4.90;;;;;;2284975;60;1036;-88
2023/10/03 03:19:59;564328.00;1.88;972.66;83103.00;0.28;144.40;;;;;16.50;4.80;;;;;;2284855;60;1410;-87
2023/10/03 03:22:29;538405.00;1.79;927.97;75101.00;0.25;130.57;;;;;16.50;4.10;;;;;;2284817;60;2122;-89
2023/10/03 03:24:58;461020.00;1.54;794.74;78520.00;0.26;136.48;;;;;16.80;3.80;;;;;;2284872;60;1041;-86
2023/10/03 03:27:26;311198.00;1.04;537.17;0.00;0.00;0.62;;;;;16.90;3.30;;;;;;2284853;60;1533;-86
2023/10/03 03:30:28;224815.00;0.75;388.63;0.00;0.00;0.62;;;;;17.10;2.60;;;;;;2284913;60;1420;-89
2023/10/03 03:32:47;898267.00;2.99;1553.08;71250.00;0.24;123.92;;;;;16.90;2.10;;;;;;2284875;60;1152;-88
2023/10/03 03:35:15;902884.00;3.01;1561.19;106802.00;0.36;185.31;;;;;16.60;3.70;;;;;;2284753;60;1750;-88
2023/10/03 03:37:43;753066.00;2.51;1299.39;78270.00;0.26;136.05;;;;;16.40;3.70;;;;;;2284743;60;1105;-89
2023/10/03 03:40:24;1008981.00;3.36;1748.38;66282.00;0.22;115.34;;;;;16.30;5.10;;;;;;2284858;60;1411;-87
2023/10/03 03:42:52;1349260.00;4.50;2362.54;121511.00;0.41;210.69;;;;;16.40;5.60;;;;;;2284808;60;1922;-88
2023/10/03 03:45:21;661255.00;2.20;1140.11;110389.00;0.37;191.50;;;;;16.40;5.80;;;;;;2284902;60;1053;-87
2023/10/03 03:47:50;852584.00;2.84;1472.99;91458.00;0.30;158.83;;;;;16.10;7.30;;;;;;2284843;60;1108;-90
2023/10/03 03:50:17;1162255.00;3.87;2022.12;65734.00;0.22;114.39;;;;;15.80;8.80;;;;;;2284793;60;2390;-87
2023/10/03 03:52:45;1040314.00;3.47;1804.01;61934.00;0.21;107.82;;;;;15.70;10.10;;;;;;2284910;60;897;-89
2023/10/03 03:55:12;1190016.00;3.97;2072.18;104584.00;0.35;181.48;;;;;15.60;10.40;;;;;;2284753;60;1025;-87
2023/10/03 03:57:39;686316.00;2.29;1183.52;65992.00;0.22;114.83;;;;;15.70;11.10;;;;;;2284795;60;1680;-88
2023/10/03 04:00:12;646015.00;2.15;1113.74;78923.00;0.26;137.18;;;;;15.80;10.60;;;;;;2284802;60;1254;-86
2023/10/03 04:02:39;880185.00;2.93;1521.34;82802.00;0.28;143.88;;;;;15.80;10.50;;;;;;2284761;60;1911;-87
2023/10/03 04:05:07;644502.00;2.15;1111.13;81045.00;0.27;140.84;;;;;15.90;10.60;;;;;;2284837;60;1012;-88
2023/10/03 04:07:34;1038531.00;3.46;1800.84;94784.00;0.32;164.57;;;;;16.00;10.60;;;;;;2284816;60;1070;-88
2023/10/03 04:10:04;769094.00;2.56;1327.28;122649.00;0.41;212.65;;;;;16.00;11.20;;;;;;2284678;60;1403;-88
2023/10/03 04:12:38;668917.00;2.23;1153.38;81117.00;0.27;140.97;;;;;16.00;11.60;;;;;;2284828;60;1147;-88
2023/10/03 04:15:11;854037.00;2.85;1475.53;93777.00;0.31;162.83;;;;;16.10;10.70;;;;;;2284796;60;1138;-88
2023/10/03 04:17:38;549122.00;1.83;946.45;61568.00;0.21;107.19;;;;;16.20;10.10;;;;;;2284844;60;1254;-88
2023/10/03 04:20:12;928710.00;3.10;1606.60;81512.00;0.27;141.65;;;;;16.40;9.50;;;;;;2284709;60;1702;-86
2023/10/03 04:22:38;1159307.00;3.86;2016.82;88939.00;0.30;154.48;;;;;16.60;8.80;;;;;;2284709;60;1911;-88
2023/10/03 04:25:13;1684687.00;5.62;2995.71;136634.00;0.46;236.77;;;;;16.70;7.40;;;;;;2284670;60;1550;-88
2023/10/03 04:27:40;873680.00;2.91;1509.94;83594.00;0.28;145.25;;;;;16.90;7.10;;;;;;2284749;60;1109;-89
2023/10/03 04:30:10;858207.00;2.86;1482.83;80430.00;0.27;139.78;;;;;17.20;5.20;;;;;;2284794;60;1297;-88
2023/10/03 04:32:37;951908.00;3.17;1647.48;108121.00;0.36;187.59;;;;;17.30;4.30;;;;;;2284673;60;979;-88
2023/10/03 04:35:05;1106717.00;3.69;1922.44;64723.00;0.22;112.64;;;;;17.60;3.70;;;;;;2284615;60;1027;-88
2023/10/03 04:37:32;674313.00;2.25;1162.72;0.00;0.00;0.62;;;;;17.70;2.40;;;;;;2284627;60;1104;-88
2023/10/03 04:39:59;696389.00;2.32;1200.98;73825.00;0.25;128.37;;;;;17.70;2.30;;;;;;2284686;60;1389;-87
2023/10/03 04:42:28;1236535.00;4.12;2156.42;122099.00;0.41;211.70;;;;;17.80;1.90;;;;;;2284546;60;2429;-89
2023/10/03 04:44:55;1228765.00;4.10;2142.31;173672.00;0.58;300.59;;;;;17.40;2.40;;;;;;2284670;60;2026;-88
2023/10/03 04:47:22;691671.00;2.31;1192.80;76515.00;0.26;133.02;;;;;17.10;2.40;;;;;;2284758;60;1047;-88
2023/10/03 04:49:48;859661.00;2.87;1485.38;68763.00;0.23;119.62;;;;;16.70;3.70;;;;;;2284722;60;1042;-88
2023/10/03 04:52:15;474000.00;1.58;817.07;78062.00;0.26;135.69;;;;;16.70;4.40;;;;;;2284617;60;1324;-89
2023/10/03 04:54:42;893617.00;2.98;1544.91;136815.00;0.46;237.08;;;;;16.90;3.90;;;;;;2284675;60;1288;-87
2023/10/03 04:57:09;1039967.00;3.47;1803.39;62099.00;0.21;108.11;;;;;17.30;2.90;;;;;;2284668;60;922;-88
2023/10/03 04:59:39;444200.00;1.48;765.81;84284.00;0.28;146.44;;;;;17.50;2.50;;;;;;2284584;60;1142;-88
2023/10/03 05:02:06;652042.00;2.17;1124.17;69438.00;0.23;120.79;;;;;17.40;2.00;;;;;;2284490;60;1588;-88
2023/10/03 05:04:34;435822.00;1.45;751.40;78525.00;0.26;136.49;;;;;17.50;2.20;;;;;;2284591;60;2002;-89
2023/10/03 05:07:01;391664.00;1.31;675.48;71763.00;0.24;124.81;;;;;17.70;1.10;;;;;;2284622;60;1576;-87
2023/10/03 05:09:30;396499.00;1.32;683.79;69607.00;0.23;121.08;;;;;17.80;1.50;;;;;;2284592;60;1728;-87
2023/10/03 05:11:57;784934.00;2.62;1354.86;91575.00;0.31;159.03;;;;;17.90;1.10;;;;;;2284456;60;1419;-86
2023/10/03 05:14:24;871199.00;2.90;1505.59;95035.00;0.32;165.00;;;;;18.00;1.00;;;;;;2284579;60;1026;-87
2023/10/03 05:16:53;505296.00;1.68;870.94;63008.00;0.21;109.68;;;;;18.00;1.20;;;;;;2284580;60;1608;-88
2023/10/03 05:19:20;462491.00;1.54;797.27;88267.00;0.29;153.32;;;;;17.90;1.60;;;;;;2284599;60;1649;-87
2023/10/03 05:21:48;541646.00;1.81;933.56;77879.00;0.26;135.37;;;;;18.00;1.40;;;;;;2284593;60;1390;-88
2023/10/03 05:24:15;405527.00;1.35;699.31;88988.00;0.30;154.56;;;;;18.00;1.00;;;;;;2284554;60;1919;-89
2023/10/03 05:26:42;408382.00;1.36;704.22;88561.00;0.30;153.82;;;;;18.10;1.00;;;;;;2284516;60;2266;-88
2023/10/03 05:29:09;651414.00;2.17;1123.08;77236.00;0.26;134.26;;;;;17.90;1.00;;;;;;2284594;60;1020;-87
2023/10/03 05:31:40;343317.00;1.14;592.37;116966.00;0.39;202.85;;;;;18.00;1.00;;;;;;2284505;60;1384;-88
2023/10/03 05:34:09;489679.00;1.63;844.06;73035.00;0.24;127.00;;;;;17.90;1.00;;;;;;2284487;60;1099;-88
2023/10/03 05:36:35;522729.00;1.74;900.97;82013.00;0.27;142.51;;;;;17.70;1.20;;;;;;2284474;60;961;-88
2023/10/03 05:39:03;594816.00;1.98;1025.27;78242.00;0.26;136.00;;;;;17.60;1.50;;;;;;2284497;60;1081;-87
2023/10/03 05:41:29;541393.00;1.80;933.12;87242.00;0.29;151.55;;;;;17.70;1.60;;;;;;2284539;60;1397;-87
2023/10/03 05:43:56;498651.00;1.66;859.50;79017.00;0.26;137.34;;;;;17.80;1.00;;;;;;2284409;60;1922;-87
2023/10/03 05:46:23;497550.00;1.66;857.61;83032.00;0.28;144.27;;;;;17.80;1.10;;;;;;2284454;60;1042;-88
2023/10/03 05:48:51;498209.00;1.66;858.74;73553.00;0.25;127.90;;;;;17.90;2.00;;;;;;2284378;60;1652;-87
2023/10/03 05:51:20;510318.00;1.70;879.59;83541.00;0.28;145.15;;;;;18.00;1.40;;;;;;2284405;60;1337;-87
2023/10/03 05:53:47;484794.00;1.62;835.65;103745.00;0.35;180.04;;;;;18.10;1.30;;;;;;2284455;60;2241;-89
2023/10/03 05:56:14;612930.00;2.04;1056.55;72173.00;0.24;125.52;;;;;18.00;1.00;;;;;;2284421;60;2369;-88
2023/10/03 05:58:41;421954.00;1.41;727.55;70426.00;0.23;122.50;;;;;18.20;1.00;;;;;;2284424;60;1014;-88
2023/10/03 06:01:08;445563.00;1.49;768.15;76574.00;0.26;133.12;;;;;18.30;1.00;;;;;;2284280;60;2232;-88
2023/10/03 06:03:36;456098.00;1.52;786.27;73855.00;0.25;128.42;;;;;18.20;1.00;;;;;;2284408;60;1990;-88
2023/10/03 06:06:03;868960.00;2.90;1501.67;67221.00;0.22;116.96;;;;;18.00;1.00;;;;;;2284433;60;1649;-88
2023/10/03 06:08:32;696570.00;2.32;1201.29;100849.00;0.34;175.04;;;;;18.00;1.00;;;;;;2284368;60;1156;-88
2023/10/03 06:11:00;883673.00;2.95;1527.46;78828.00;0.26;137.01;;;;;18.30;1.00;;;;;;2284316;60;1351;-88
2023/10/03 06:13:26;1026244.00;3.42;1779.01;75688.00;0.25;131.59;;;;;18.50;1.00;;;;;;2284447;60;1132;-88
2023/10/03 06:15:53;286632.00;0.96;494.94;83535.00;0.28;145.14;;;;;18.70;1.00;;;;;;2284352;60;1641;-88
2023/10/03 06:18:20;737099.00;2.46;1271.63;64302.00;0.21;111.91;;;;;19.30;1.00;;;;;;2284325;60;1081;-86
2023/10/03 06:20:49;434780.00;1.45;749.61;72763.00;0.24;126.53;;;;;20.00;1.00;;;;;;2284278;60;1405;-87
2023/10/03 06:23:16;385431.00;1.28;664.76;76790.00;0.26;133.49;;;;;20.60;1.00;;;;;;2284600;60;1918;-87
2023/10/03 06:25:45;385756.00;1.29;665.32;70672.00;0.24;122.92;;;;;20.80;1.00;;;;;;2285161;60;923;-88
2023/10/03 06:28:11;806803.00;2.69;1392.99;120517.00;0.40;208.97;;;;;20.30;1.00;;;;;;2285051;60;2345;-87
2023/10/03 06:30:38;778352.00;2.59;1343.40;116759.00;0.39;202.49;;;;;20.50;1.00;;;;;;2284933;60;1292;-88
2023/10/03 06:33:07;265623.00;0.89;458.82;78997.00;0.26;137.30;;;;;21.20;1.00;;;;;;2285131;60;1079;-89
2023/10/03 06:35:34;687515.00;2.29;1185.59;65941.00;0.22;114.75;;;;;22.00;1.00;;;;;;2284982;60;1886;-88
2023/10/03 06:38:02;427291.00;1.42;736.73;78903.00;0.26;137.14;;;;;23.00;1.00;;;;;;2285088;60;1031;-89
2023/10/03 06:40:30;340650.00;1.14;587.79;57097.00;0.19;99.46;;;;;23.40;1.00;;;;;;2285007;60;1394;-87
2023/10/03 06:42:58;807784.00;2.69;1394.70;73126.00;0.24;127.16;;;;;23.80;1.00;;;;;;2285133;60;802;-88
2023/10/03 06:45:25;355725.00;1.19;613.70;74879.00;0.25;130.19;;;;;24.30;1.00;;;;;;2284835;60;1938;-88
2023/10/03 06:47:52;398114.00;1.33;686.56;73499.00;0.24;127.81;;;;;24.60;1.00;;;;;;2285071;60;990;-87
2023/10/03 06:50:18;692071.00;2.31;1193.49;72460.00;0.24;126.01;;;;;24.90;1.00;;;;;;2285071;60;1283;-87
2023/10/03 06:52:47;253436.00;0.84;437.86;70323.00;0.23;122.32;;;;;25.30;1.00;;;;;;2285001;60;967;-87
2023/10/03 06:55:15;232945.00;0.78;402.62;70984.00;0.24;123.46;;;;;25.50;1.00;;;;;;2284949;60;2041;-86
2023/10/03 06:57:43;343597.00;1.15;592.86;69773.00;0.23;121.37;;;;;25.40;1.00;;;;;;2285073;60;1049;-88
2023/10/03 07:00:14;504049.00;1.68;868.80;54543.00;0.18;95.04;;;;;25.30;1.00;;;;;;2284942;60;1367;-87
2023/10/03 07:02:41;612533.00;2.04;1055.87;68182.00;0.23;118.62;;;;;25.10;1.00;;;;;;2284930;60;1157;-88
2023/10/03 07:05:08;492144.00;1.64;848.30;73793.00;0.25;128.31;;;;;25.00;1.00;;;;;;2284996;60;1917;-86
2023/10/03 07:07:35;440217.00;1.47;758.96;66701.00;0.22;116.06;;;;;24.50;1.00;;;;;;2284999;60;911;-87
2023/10/03 07:10:03;286226.00;0.95;494.24;73285.00;0.24;127.44;;;;;24.20;1.00;;;;;;2284837;60;2216;-87
2023/10/03 07:12:30;515793.00;1.72;889.02;68832.00;0.23;119.74;;;;;24.00;1.00;;;;;;2284943;60;1232;-88
2023/10/03 07:14:57;507874.00;1.69;875.38;65595.00;0.22;114.15;;;;;24.20;1.00;;;;;;2284902;60;1560;-88
2023/10/03 07:17:25;712642.00;2.38;1229.17;143660.00;0.48;248.88;;;;;24.40;1.00;;;;;;2285000;60;1018;-88
2023/10/03 07:19:52;906320.00;3.02;1567.22;65412.00;0.22;113.83;;;;;24.50;1.00;;;;;;2284928;60;1383;-88
2023/10/03 07:22:20;363125.00;1.21;626.42;65894.00;0.22;114.66;;;;;24.80;1.00;;;;;;2285011;60;942;-87
2023/10/03 07:24:46;434301.00;1.45;748.78;64799.00;0.22;112.77;;;;;25.10;1.00;;;;;;2284866;60;1923;-87
2023/10/03 07:27:15;484743.00;1.62;835.56;68145.00;0.23;118.55;;;;;25.90;1.00;;;;;;2284875;60;1060;-87
2023/10/03 07:29:42;359120.00;1.20;619.54;79851.00;0.27;138.78;;;;;26.40;1.00;;;;;;2284950;60;1014;-89
2023/10/03 07:32:12;329784.00;1.10;569.11;73831.00;0.25;128.38;;;;;26.80;1.00;;;;;;2284920;60;1202;-88
2023/10/03 07:34:43;394037.00;1.31;679.55;57099.00;0.19;99.46;;;;;26.90;1.00;;;;;;2284803;60;1199;-86
2023/10/03 07:37:10;663384.00;2.21;1143.80;86436.00;0.29;150.15;;;;;27.20;1.00;;;;;;2284891;60;1076;-89
2023/10/03 07:39:38;386658.00;1.29;666.87;81285.00;0.27;141.26;;;;;27.20;1.00;;;;;;2284690;60;1729;-88
2023/10/03 07:47:04;939179.00;3.13;1625.04;93607.00;0.31;162.54;;;;;27.50;1.00;;;;;;2277928;55;3765;-88
2023/10/03 07:52:00;475234.00;1.58;819.20;77991.00;0.26;135.57;;;;;27.50;1.00;;;;;;2270588;61;1504;-88
2023/10/03 07:54:31;267634.00;0.89;462.28;0.00;0.00;0.62;;;;;28.00;1.00;;;;;;2268720;61;1003;-88
2023/10/03 07:57:03;121135688.00;403.79;72008192.00;57235.00;0.19;99.70;;;;;27.90;1.00;;;;;;2268685;61;1220;-88
2023/10/03 07:59:30;353653.00;1.18;610.14;96053.00;0.32;166.76;;;;;28.20;1.00;;;;;;2268702;61;1139;-88
2023/10/03 08:02:04;277532.00;0.93;479.29;67231.00;0.22;116.98;;;;;27.80;1.00;;;;;;2268578;61;1594;-86
2023/10/03 08:04:32;211653.00;0.71;365.98;74702.00;0.25;129.88;;;;;27.50;1.00;;;;;;2268574;61;2015;-85
2023/10/03 08:07:00;138644.00;0.46;240.23;0.00;0.00;0.62;;;;;27.70;1.00;;;;;;2268674;61;917;-87
2023/10/03 08:09:27;465377.00;1.55;802.24;0.00;0.00;0.62;;;;;28.10;1.00;;;;;;2268647;61;1033;-87
2023/10/03 08:11:54;242696.00;0.81;419.39;0.00;0.00;0.62;;;;;28.60;1.00;;;;;;2268547;61;1353;-87
2023/10/03 08:14:21;172670.00;0.58;298.87;0.00;0.00;0.62;;;;;28.70;1.00;;;;;;2268672;61;1065;-87
2023/10/03 08:16:48;207213.00;0.69;358.34;0.00;0.00;0.62;;;;;28.90;1.00;;;;;;2268572;61;1530;-87
2023/10/03 08:19:21;225605.00;0.75;389.99;0.00;0.00;0.62;;;;;29.00;1.00;;;;;;2268569;61;1119;-87
2023/10/03 08:21:48;311246.00;1.04;537.25;7325.00;0.02;13.31;;;;;28.80;1.00;;;;;;2268523;61;1379;-88
2023/10/03 08:26:47;1413745.00;4.71;2481.84;0.00;0.00;0.62;;;;;29.10;1.00;;;;;;1510026;40;3474;-90
2023/10/03 08:29:21;106837.00;0.36;185.37;0.00;0.00;0.62;;;;;29.20;1.00;;;;;;2278105;55;3742;-89
2023/10/03 08:31:49;16243.00;0.05;28.76;0.00;0.00;0.62;;;;;29.40;1.00;;;;;;2276351;61;1440;-88
2023/10/03 08:34:17;195886.00;0.65;338.84;0.00;0.00;0.62;;;;;29.50;1.00;;;;;;2276462;61;1598;-86
2023/10/03 08:36:44;409458.00;1.36;706.07;132359.00;0.44;229.40;;;;;28.90;1.00;;;;;;2276620;61;1107;-87
2023/10/03 08:39:13;200572.00;0.67;346.91;63886.00;0.21;111.19;;;;;28.60;1.00;;;;;;2276587;61;942;-88
2023/10/03 08:41:48;0.00;0.00;0.62;0.00;0.00;0.62;;;;;28.70;1.00;;;;;;2276592;61;1277;-86
2023/10/03 08:44:15;54592.00;0.18;95.13;0.00;0.00;0.62;;;;;28.50;1.00;;;;;;2276564;61;2005;-86
2023/10/03 08:46:49;176020.00;0.59;304.64;0.00;0.00;0.62;;;;;28.20;1.00;;;;;;2276470;61;1066;-86
2023/10/03 08:49:20;91733.00;0.31;159.30;0.00;0.00;0.62;;;;;28.30;1.00;;;;;;2276665;61;1469;-88
2023/10/03 08:51:48;151589.00;0.51;262.55;295.00;0.00;1.13;;;;;28.50;1.00;;;;;;2276675;61;1315;-87
2023/10/03 08:54:16;142777.00;0.48;247.36;0.00;0.00;0.62;;;;;28.60;1.00;;;;;;2276541;61;1668;-87
2023/10/03 08:56:43;343996.00;1.15;593.54;53056.00;0.18;92.47;;;;;28.40;1.00;;;;;;2276580;61;977;-86
2023/10/03 08:59:15;107001.00;0.36;185.65;0.00;0.00;0.62;;;;;28.00;1.00;;;;;;2276688;61;939;-86
2023/10/03 09:01:45;63155.00;0.21;109.93;0.00;0.00;0.62;;;;;27.80;1.00;;;;;;2276621;61;1324;-87
2023/10/03 09:04:15;36913.00;0.12;64.55;0.00;0.00;0.62;;;;;28.20;1.00;;;;;;2276628;61;2002;-89
2023/10/03 09:06:43;8856.00;0.03;15.97;0.00;0.00;0.62;;;;;28.40;1.00;;;;;;2276703;61;1073;-87
2023/10/03 09:09:13;119981.00;0.40;208.05;0.00;0.00;0.62;;;;;28.70;1.00;;;;;;2276642;61;1599;-90
2023/10/03 09:11:42;68559.00;0.23;119.27;0.00;0.00;0.62;;;;;29.10;1.00;;;;;;2276537;61;1426;-88
2023/10/03 09:14:12;157303.00;0.52;272.39;0.00;0.00;0.62;;;;;29.10;1.00;;;;;;2276611;61;1001;-87
2023/10/03 09:16:40;81241.00;0.27;141.18;0.00;0.00;0.62;;;;;28.90;1.00;;;;;;2276554;61;979;-88
2023/10/03 09:19:09;214381.00;0.71;370.67;0.00;0.00;0.62;;;;;28.60;1.00;;;;;;2276586;61;1083;-88
2023/10/03 09:21:36;113270.00;0.38;196.47;0.00;0.00;0.62;;;;;28.30;1.00;;;;;;2276536;61;1441;-86
2023/10/03 09:24:12;112454.00;0.37;195.06;0.00;0.00;0.62;;;;;28.70;1.00;;;;;;2276593;61;1110;-88
2023/10/03 09:26:47;57974.00;0.19;100.97;0.00;0.00;0.62;;;;;29.20;1.00;;;;;;2276568;61;1265;-87
2023/10/03 09:29:18;0.00;0.00;0.62;0.00;0.00;0.62;;;;;29.10;1.00;;;;;;2276493;61;1515;-86
2023/10/03 09:31:49;100721.00;0.34;174.82;0.00;0.00;0.62;;;;;29.00;1.00;;;;;;2276624;61;1313;-87
2023/10/03 09:34:17;102966.00;0.34;178.69;0.00;0.00;0.62;;;;;29.00;1.00;;;;;;2276600;61;1106;-88
2023/10/03 09:36:44;334869.00;1.12;577.85;44415.00;0.15;77.53;;;;;28.50;1.00;;;;;;2276450;61;1487;-90
2023/10/03 09:39:20;105794.00;0.35;183.57;0.00;0.00;0.62;;;;;28.60;1.00;;;;;;2276527;61;1613;-87
2023/10/03 09:41:54;0.00;0.00;0.62;0.00;0.00;0.62;;;;;28.80;1.00;;;;;;2276467;61;1441;-88
2023/10/03 09:44:29;39837.00;0.13;69.61;0.00;0.00;0.62;;;;;29.00;1.00;;;;;;2276518;61;2000;-87
2023/10/03 09:47:03;125089.00;0.42;216.86;0.00;0.00;0.62;;;;;29.00;1.00;;;;;;2276525;61;1320;-88
2023/10/03 09:49:36;100171.00;0.33;173.87;0.00;0.00;0.62;;;;;29.00;1.00;;;;;;2276486;61;1721;-88
2023/10/03 09:52:07;64653.00;0.22;112.52;0.00;0.00;0.62;;;;;29.20;1.00;;;;;;2276393;61;1501;-89